sensor_id;sensor_type;location;lat;lon;timestamp;P1;durP1;ratioP1;P2;durP2;ratioP2
64936;SDS011;51452;47.698;19.050;2022-10-16T00:00:38;10.20;;;6.32;;
64936;SDS011;51452;47.698;19.050;2022-10-16T00:03:05;14.13;;;6.55;;
64936;SDS011;51452;47.698;19.050;2022-10-16T00:05:31;11.43;;;6.25;;
64936;SDS011;51452;47.698;19.050;2022-10-16T00:07:57;11.00;;;6.07;;
64936;SDS011;51452;47.698;19.050;2022-10-16T00:10:22;10.82;;;6.05;;
64936;SDS011;51452;47.698;19.050;2022-10-16T00:12:48;13.93;;;5.68;;
64936;SDS011;51452;47.698;19.050;2022-10-16T00:15:13;10.73;;;6.40;;
64936;SDS011;51452;47.698;19.050;2022-10-16T00:17:39;9.05;;;6.30;;
64936;SDS011;51452;47.698;19.050;2022-10-16T00:20:04;10.77;;;5.90;;
64936;SDS011;51452;47.698;19.050;2022-10-16T00:22:30;11.00;;;6.20;;
64936;SDS011;51452;47.698;19.050;2022-10-16T00:24:56;10.20;;;5.70;;
64936;SDS011;51452;47.698;19.050;2022-10-16T00:27:21;10.02;;;5.57;;
64936;SDS011;51452;47.698;19.050;2022-10-16T00:29:50;12.55;;;6.00;;
64936;SDS011;51452;47.698;19.050;2022-10-16T00:32:17;9.40;;;6.30;;
64936;SDS011;51452;47.698;19.050;2022-10-16T00:34:43;10.65;;;6.22;;
64936;SDS011;51452;47.698;19.050;2022-10-16T00:37:08;8.43;;;6.00;;
64936;SDS011;51452;47.698;19.050;2022-10-16T00:39:33;10.75;;;6.35;;
64936;SDS011;51452;47.698;19.050;2022-10-16T00:41:59;11.52;;;5.82;;
64936;SDS011;51452;47.698;19.050;2022-10-16T00:50:07;12.60;;;5.70;;
64936;SDS011;51452;47.698;19.050;2022-10-16T00:52:36;10.95;;;6.30;;
64936;SDS011;51452;47.698;19.050;2022-10-16T00:55:06;12.32;;;6.28;;
64936;SDS011;51452;47.698;19.050;2022-10-16T00:57:34;9.57;;;6.00;;
64936;SDS011;51452;47.698;19.050;2022-10-16T00:59:59;9.63;;;6.10;;
64936;SDS011;51452;47.698;19.050;2022-10-16T01:02:25;9.77;;;6.15;;
64936;SDS011;51452;47.698;19.050;2022-10-16T01:04:51;17.30;;;6.25;;
64936;SDS011;51452;47.698;19.050;2022-10-16T01:07:34;11.82;;;5.55;;
64936;SDS011;51452;47.698;19.050;2022-10-16T01:13:12;10.52;;;6.05;;
64936;SDS011;51452;47.698;19.050;2022-10-16T01:15:54;9.52;;;6.18;;
64936;SDS011;51452;47.698;19.050;2022-10-16T01:20:59;10.60;;;5.78;;
64936;SDS011;51452;47.698;19.050;2022-10-16T01:23:34;10.82;;;5.47;;
64936;SDS011;51452;47.698;19.050;2022-10-16T01:31:31;12.82;;;5.32;;
64936;SDS011;51452;47.698;19.050;2022-10-16T01:34:07;11.70;;;5.55;;
64936;SDS011;51452;47.698;19.050;2022-10-16T01:36:41;8.35;;;5.35;;
64936;SDS011;51452;47.698;19.050;2022-10-16T01:39:09;10.65;;;5.32;;
64936;SDS011;51452;47.698;19.050;2022-10-16T01:41:41;7.43;;;5.25;;
64936;SDS011;51452;47.698;19.050;2022-10-16T01:44:13;8.07;;;5.35;;
64936;SDS011;51452;47.698;19.050;2022-10-16T01:46:41;15.13;;;6.00;;
64936;SDS011;51452;47.698;19.050;2022-10-16T01:49:08;9.43;;;5.43;;
64936;SDS011;51452;47.698;19.050;2022-10-16T01:51:34;10.85;;;5.80;;
64936;SDS011;51452;47.698;19.050;2022-10-16T01:54:02;13.13;;;5.88;;
64936;SDS011;51452;47.698;19.050;2022-10-16T01:56:29;10.60;;;5.95;;
64936;SDS011;51452;47.698;19.050;2022-10-16T01:58:57;10.40;;;5.35;;
64936;SDS011;51452;47.698;19.050;2022-10-16T02:01:26;9.80;;;5.70;;
64936;SDS011;51452;47.698;19.050;2022-10-16T02:03:54;10.32;;;5.72;;
64936;SDS011;51452;47.698;19.050;2022-10-16T02:06:23;14.07;;;5.90;;
64936;SDS011;51452;47.698;19.050;2022-10-16T02:08:49;12.68;;;5.70;;
64936;SDS011;51452;47.698;19.050;2022-10-16T02:11:15;9.98;;;5.38;;
64936;SDS011;51452;47.698;19.050;2022-10-16T02:13:45;9.32;;;5.65;;
64936;SDS011;51452;47.698;19.050;2022-10-16T02:16:13;13.35;;;5.80;;
64936;SDS011;51452;47.698;19.050;2022-10-16T02:18:39;15.38;;;5.50;;
64936;SDS011;51452;47.698;19.050;2022-10-16T02:22:06;11.13;;;6.25;;
64936;SDS011;51452;47.698;19.050;2022-10-16T02:26:40;11.73;;;6.10;;
64936;SDS011;51452;47.698;19.050;2022-10-16T02:31:41;9.57;;;5.70;;
64936;SDS011;51452;47.698;19.050;2022-10-16T02:34:12;10.90;;;5.88;;
64936;SDS011;51452;47.698;19.050;2022-10-16T02:36:39;11.38;;;6.20;;
64936;SDS011;51452;47.698;19.050;2022-10-16T02:39:06;10.52;;;5.82;;
64936;SDS011;51452;47.698;19.050;2022-10-16T02:41:32;8.82;;;5.57;;
64936;SDS011;51452;47.698;19.050;2022-10-16T02:43:58;11.55;;;5.80;;
64936;SDS011;51452;47.698;19.050;2022-10-16T02:46:23;9.80;;;5.65;;
64936;SDS011;51452;47.698;19.050;2022-10-16T02:48:48;11.32;;;5.90;;
64936;SDS011;51452;47.698;19.050;2022-10-16T02:51:14;11.15;;;6.10;;
64936;SDS011;51452;47.698;19.050;2022-10-16T02:53:39;9.23;;;5.43;;
64936;SDS011;51452;47.698;19.050;2022-10-16T02:56:04;10.23;;;5.30;;
64936;SDS011;51452;47.698;19.050;2022-10-16T02:58:30;14.30;;;5.85;;
64936;SDS011;51452;47.698;19.050;2022-10-16T03:00:55;16.58;;;6.03;;
64936;SDS011;51452;47.698;19.050;2022-10-16T03:03:21;15.88;;;5.30;;
64936;SDS011;51452;47.698;19.050;2022-10-16T03:05:46;9.73;;;5.40;;
64936;SDS011;51452;47.698;19.050;2022-10-16T03:08:12;10.07;;;4.88;;
64936;SDS011;51452;47.698;19.050;2022-10-16T03:10:38;10.50;;;5.03;;
64936;SDS011;51452;47.698;19.050;2022-10-16T03:13:03;11.23;;;5.47;;
64936;SDS011;51452;47.698;19.050;2022-10-16T03:15:29;11.82;;;5.47;;
64936;SDS011;51452;47.698;19.050;2022-10-16T03:17:54;10.40;;;5.20;;
64936;SDS011;51452;47.698;19.050;2022-10-16T03:20:22;8.27;;;4.78;;
64936;SDS011;51452;47.698;19.050;2022-10-16T03:22:47;9.02;;;4.45;;
64936;SDS011;51452;47.698;19.050;2022-10-16T03:25:12;7.50;;;5.05;;
64936;SDS011;51452;47.698;19.050;2022-10-16T03:27:38;9.07;;;5.20;;
64936;SDS011;51452;47.698;19.050;2022-10-16T03:30:03;11.32;;;5.50;;
64936;SDS011;51452;47.698;19.050;2022-10-16T03:32:29;7.60;;;5.03;;
64936;SDS011;51452;47.698;19.050;2022-10-16T03:34:54;8.07;;;4.57;;
64936;SDS011;51452;47.698;19.050;2022-10-16T03:37:21;9.00;;;5.13;;
64936;SDS011;51452;47.698;19.050;2022-10-16T03:39:46;8.52;;;4.80;;
64936;SDS011;51452;47.698;19.050;2022-10-16T03:42:12;7.95;;;5.07;;
64936;SDS011;51452;47.698;19.050;2022-10-16T03:44:37;8.05;;;4.82;;
64936;SDS011;51452;47.698;19.050;2022-10-16T03:47:02;8.02;;;4.90;;
64936;SDS011;51452;47.698;19.050;2022-10-16T03:49:28;11.00;;;5.20;;
64936;SDS011;51452;47.698;19.050;2022-10-16T03:51:53;10.88;;;5.15;;
64936;SDS011;51452;47.698;19.050;2022-10-16T03:54:18;10.07;;;4.40;;
64936;SDS011;51452;47.698;19.050;2022-10-16T03:56:44;11.38;;;4.70;;
64936;SDS011;51452;47.698;19.050;2022-10-16T03:59:09;7.88;;;5.03;;
64936;SDS011;51452;47.698;19.050;2022-10-16T04:01:34;10.32;;;5.15;;
64936;SDS011;51452;47.698;19.050;2022-10-16T04:04:00;11.52;;;4.78;;
64936;SDS011;51452;47.698;19.050;2022-10-16T04:06:25;11.07;;;4.95;;
64936;SDS011;51452;47.698;19.050;2022-10-16T04:08:50;9.90;;;5.10;;
64936;SDS011;51452;47.698;19.050;2022-10-16T04:11:16;8.55;;;4.60;;
64936;SDS011;51452;47.698;19.050;2022-10-16T04:13:41;6.97;;;4.28;;
64936;SDS011;51452;47.698;19.050;2022-10-16T04:16:07;7.65;;;4.78;;
64936;SDS011;51452;47.698;19.050;2022-10-16T04:18:32;9.57;;;4.57;;
64936;SDS011;51452;47.698;19.050;2022-10-16T04:21:02;7.47;;;4.30;;
64936;SDS011;51452;47.698;19.050;2022-10-16T04:23:28;10.82;;;5.55;;
64936;SDS011;51452;47.698;19.050;2022-10-16T04:25:53;9.50;;;5.32;;
64936;SDS011;51452;47.698;19.050;2022-10-16T04:28:19;12.35;;;5.22;;
64936;SDS011;51452;47.698;19.050;2022-10-16T04:30:44;10.45;;;5.28;;
64936;SDS011;51452;47.698;19.050;2022-10-16T04:33:09;8.48;;;5.20;;
64936;SDS011;51452;47.698;19.050;2022-10-16T04:35:35;11.02;;;5.15;;
64936;SDS011;51452;47.698;19.050;2022-10-16T04:38:00;8.60;;;4.75;;
64936;SDS011;51452;47.698;19.050;2022-10-16T04:40:25;7.93;;;4.30;;
64936;SDS011;51452;47.698;19.050;2022-10-16T04:42:51;8.52;;;4.80;;
64936;SDS011;51452;47.698;19.050;2022-10-16T04:45:16;6.72;;;4.47;;
64936;SDS011;51452;47.698;19.050;2022-10-16T04:47:41;9.00;;;4.65;;
64936;SDS011;51452;47.698;19.050;2022-10-16T04:50:07;6.88;;;4.25;;
64936;SDS011;51452;47.698;19.050;2022-10-16T04:52:33;9.00;;;4.80;;
64936;SDS011;51452;47.698;19.050;2022-10-16T04:54:58;8.13;;;4.35;;
64936;SDS011;51452;47.698;19.050;2022-10-16T04:57:27;9.20;;;4.63;;
64936;SDS011;51452;47.698;19.050;2022-10-16T04:59:52;8.70;;;4.80;;
64936;SDS011;51452;47.698;19.050;2022-10-16T05:02:18;11.05;;;4.65;;
64936;SDS011;51452;47.698;19.050;2022-10-16T05:04:43;10.43;;;4.57;;
64936;SDS011;51452;47.698;19.050;2022-10-16T05:07:08;7.85;;;4.57;;
64936;SDS011;51452;47.698;19.050;2022-10-16T05:09:34;7.60;;;4.50;;
64936;SDS011;51452;47.698;19.050;2022-10-16T05:11:59;9.50;;;5.13;;
64936;SDS011;51452;47.698;19.050;2022-10-16T05:14:24;9.68;;;5.18;;
64936;SDS011;51452;47.698;19.050;2022-10-16T05:16:50;7.43;;;4.60;;
64936;SDS011;51452;47.698;19.050;2022-10-16T05:19:15;11.15;;;5.25;;
64936;SDS011;51452;47.698;19.050;2022-10-16T05:21:41;6.43;;;4.18;;
64936;SDS011;51452;47.698;19.050;2022-10-16T05:24:06;8.52;;;4.22;;
64936;SDS011;51452;47.698;19.050;2022-10-16T05:26:31;8.80;;;4.97;;
64936;SDS011;51452;47.698;19.050;2022-10-16T05:28:57;10.85;;;5.10;;
64936;SDS011;51452;47.698;19.050;2022-10-16T05:31:22;10.30;;;5.18;;
64936;SDS011;51452;47.698;19.050;2022-10-16T05:33:47;8.43;;;4.53;;
64936;SDS011;51452;47.698;19.050;2022-10-16T05:36:13;9.60;;;4.68;;
64936;SDS011;51452;47.698;19.050;2022-10-16T05:38:39;8.98;;;4.88;;
64936;SDS011;51452;47.698;19.050;2022-10-16T05:41:05;10.27;;;5.13;;
64936;SDS011;51452;47.698;19.050;2022-10-16T05:43:30;8.40;;;4.72;;
64936;SDS011;51452;47.698;19.050;2022-10-16T05:46:01;9.32;;;4.47;;
64936;SDS011;51452;47.698;19.050;2022-10-16T05:48:28;9.35;;;4.80;;
64936;SDS011;51452;47.698;19.050;2022-10-16T05:51:04;11.20;;;5.10;;
64936;SDS011;51452;47.698;19.050;2022-10-16T05:53:32;10.63;;;5.25;;
64936;SDS011;51452;47.698;19.050;2022-10-16T05:55:59;8.27;;;5.40;;
64936;SDS011;51452;47.698;19.050;2022-10-16T05:58:27;11.85;;;4.88;;
64936;SDS011;51452;47.698;19.050;2022-10-16T06:03:21;10.00;;;5.60;;
64936;SDS011;51452;47.698;19.050;2022-10-16T06:05:46;8.80;;;4.90;;
64936;SDS011;51452;47.698;19.050;2022-10-16T06:08:11;12.57;;;5.40;;
64936;SDS011;51452;47.698;19.050;2022-10-16T06:10:37;11.00;;;5.63;;
64936;SDS011;51452;47.698;19.050;2022-10-16T06:13:02;8.27;;;5.22;;
64936;SDS011;51452;47.698;19.050;2022-10-16T06:15:27;8.90;;;5.00;;
64936;SDS011;51452;47.698;19.050;2022-10-16T06:17:52;8.48;;;5.15;;
64936;SDS011;51452;47.698;19.050;2022-10-16T06:20:18;9.05;;;5.53;;
64936;SDS011;51452;47.698;19.050;2022-10-16T06:22:43;8.65;;;5.60;;
64936;SDS011;51452;47.698;19.050;2022-10-16T06:25:08;10.75;;;4.50;;
64936;SDS011;51452;47.698;19.050;2022-10-16T06:27:34;8.98;;;4.63;;
64936;SDS011;51452;47.698;19.050;2022-10-16T06:29:59;9.48;;;4.45;;
64936;SDS011;51452;47.698;19.050;2022-10-16T06:32:25;8.93;;;5.38;;
64936;SDS011;51452;47.698;19.050;2022-10-16T06:34:50;12.55;;;5.60;;
64936;SDS011;51452;47.698;19.050;2022-10-16T06:37:15;7.78;;;4.88;;
64936;SDS011;51452;47.698;19.050;2022-10-16T06:39:41;9.27;;;5.40;;
64936;SDS011;51452;47.698;19.050;2022-10-16T06:42:06;10.35;;;5.20;;
64936;SDS011;51452;47.698;19.050;2022-10-16T06:44:31;15.52;;;5.13;;
64936;SDS011;51452;47.698;19.050;2022-10-16T06:46:57;9.02;;;4.90;;
64936;SDS011;51452;47.698;19.050;2022-10-16T06:49:22;7.35;;;4.85;;
64936;SDS011;51452;47.698;19.050;2022-10-16T06:51:48;10.05;;;5.15;;
64936;SDS011;51452;47.698;19.050;2022-10-16T06:54:14;9.32;;;5.50;;
64936;SDS011;51452;47.698;19.050;2022-10-16T06:56:41;9.52;;;5.05;;
64936;SDS011;51452;47.698;19.050;2022-10-16T06:59:06;10.55;;;5.18;;
64936;SDS011;51452;47.698;19.050;2022-10-16T07:01:31;11.77;;;5.70;;
64936;SDS011;51452;47.698;19.050;2022-10-16T07:03:57;12.30;;;5.18;;
64936;SDS011;51452;47.698;19.050;2022-10-16T07:06:23;10.32;;;5.22;;
64936;SDS011;51452;47.698;19.050;2022-10-16T07:08:50;7.25;;;4.80;;
64936;SDS011;51452;47.698;19.050;2022-10-16T07:11:20;12.00;;;5.47;;
64936;SDS011;51452;47.698;19.050;2022-10-16T07:13:47;10.13;;;5.88;;
64936;SDS011;51452;47.698;19.050;2022-10-16T07:18:43;9.40;;;5.40;;
64936;SDS011;51452;47.698;19.050;2022-10-16T07:21:11;11.63;;;5.88;;
64936;SDS011;51452;47.698;19.050;2022-10-16T07:23:38;9.60;;;5.38;;
64936;SDS011;51452;47.698;19.050;2022-10-16T07:26:04;11.63;;;5.53;;
64936;SDS011;51452;47.698;19.050;2022-10-16T07:28:31;11.90;;;5.85;;
64936;SDS011;51452;47.698;19.050;2022-10-16T07:31:07;9.18;;;5.60;;
64936;SDS011;51452;47.698;19.050;2022-10-16T07:33:36;9.32;;;5.43;;
64936;SDS011;51452;47.698;19.050;2022-10-16T07:36:02;11.90;;;5.38;;
64936;SDS011;51452;47.698;19.050;2022-10-16T07:38:27;11.02;;;5.65;;
64936;SDS011;51452;47.698;19.050;2022-10-16T07:40:56;9.98;;;5.68;;
64936;SDS011;51452;47.698;19.050;2022-10-16T07:43:23;10.05;;;6.00;;
64936;SDS011;51452;47.698;19.050;2022-10-16T07:45:48;12.85;;;5.25;;
64936;SDS011;51452;47.698;19.050;2022-10-16T07:48:15;9.98;;;5.25;;
64936;SDS011;51452;47.698;19.050;2022-10-16T07:50:41;12.77;;;6.30;;
64936;SDS011;51452;47.698;19.050;2022-10-16T07:53:07;9.38;;;5.78;;
64936;SDS011;51452;47.698;19.050;2022-10-16T07:55:33;10.70;;;6.10;;
64936;SDS011;51452;47.698;19.050;2022-10-16T07:57:58;13.85;;;6.43;;
64936;SDS011;51452;47.698;19.050;2022-10-16T08:00:24;9.05;;;5.50;;
64936;SDS011;51452;47.698;19.050;2022-10-16T08:02:49;13.18;;;5.88;;
64936;SDS011;51452;47.698;19.050;2022-10-16T08:05:14;16.27;;;6.03;;
64936;SDS011;51452;47.698;19.050;2022-10-16T08:07:40;8.70;;;5.93;;
64936;SDS011;51452;47.698;19.050;2022-10-16T08:10:05;9.70;;;5.57;;
64936;SDS011;51452;47.698;19.050;2022-10-16T08:12:30;10.57;;;5.75;;
64936;SDS011;51452;47.698;19.050;2022-10-16T08:14:56;10.10;;;5.70;;
64936;SDS011;51452;47.698;19.050;2022-10-16T08:17:21;10.23;;;5.85;;
64936;SDS011;51452;47.698;19.050;2022-10-16T08:19:47;9.05;;;5.60;;
64936;SDS011;51452;47.698;19.050;2022-10-16T08:22:13;10.23;;;5.43;;
64936;SDS011;51452;47.698;19.050;2022-10-16T08:24:38;12.02;;;6.50;;
64936;SDS011;51452;47.698;19.050;2022-10-16T08:27:04;10.80;;;6.07;;
64936;SDS011;51452;47.698;19.050;2022-10-16T08:29:30;9.63;;;5.50;;
64936;SDS011;51452;47.698;19.050;2022-10-16T08:31:55;9.75;;;5.82;;
64936;SDS011;51452;47.698;19.050;2022-10-16T08:34:20;10.57;;;5.38;;
64936;SDS011;51452;47.698;19.050;2022-10-16T08:36:46;9.43;;;4.85;;
64936;SDS011;51452;47.698;19.050;2022-10-16T08:39:11;8.95;;;5.28;;
64936;SDS011;51452;47.698;19.050;2022-10-16T08:49:56;10.25;;;5.65;;
64936;SDS011;51452;47.698;19.050;2022-10-16T08:52:29;13.43;;;5.28;;
64936;SDS011;51452;47.698;19.050;2022-10-16T08:54:57;9.60;;;5.22;;
64936;SDS011;51452;47.698;19.050;2022-10-16T08:57:24;9.63;;;5.10;;
64936;SDS011;51452;47.698;19.050;2022-10-16T08:59:53;9.70;;;5.15;;
64936;SDS011;51452;47.698;19.050;2022-10-16T09:02:38;10.55;;;5.43;;
64936;SDS011;51452;47.698;19.050;2022-10-16T09:10:49;9.82;;;5.22;;
64936;SDS011;51452;47.698;19.050;2022-10-16T09:16:36;11.52;;;5.60;;
64936;SDS011;51452;47.698;19.050;2022-10-16T09:21:47;11.45;;;5.75;;
64936;SDS011;51452;47.698;19.050;2022-10-16T09:26:43;7.25;;;4.55;;
64936;SDS011;51452;47.698;19.050;2022-10-16T09:29:11;9.48;;;5.07;;
64936;SDS011;51452;47.698;19.050;2022-10-16T09:31:38;8.07;;;4.82;;
64936;SDS011;51452;47.698;19.050;2022-10-16T09:34:04;7.88;;;5.18;;
64936;SDS011;51452;47.698;19.050;2022-10-16T09:36:35;7.72;;;5.13;;
64936;SDS011;51452;47.698;19.050;2022-10-16T09:39:08;8.23;;;5.30;;
64936;SDS011;51452;47.698;19.050;2022-10-16T09:41:37;9.43;;;4.80;;
64936;SDS011;51452;47.698;19.050;2022-10-16T09:44:06;8.68;;;4.82;;
64936;SDS011;51452;47.698;19.050;2022-10-16T09:46:49;9.43;;;5.50;;
64936;SDS011;51452;47.698;19.050;2022-10-16T09:49:25;7.93;;;5.57;;
64936;SDS011;51452;47.698;19.050;2022-10-16T09:52:02;10.18;;;5.88;;
64936;SDS011;51452;47.698;19.050;2022-10-16T09:54:38;8.93;;;5.10;;
64936;SDS011;51452;47.698;19.050;2022-10-16T09:57:14;7.80;;;4.70;;
64936;SDS011;51452;47.698;19.050;2022-10-16T09:59:46;7.00;;;4.90;;
64936;SDS011;51452;47.698;19.050;2022-10-16T10:02:13;10.18;;;5.15;;
64936;SDS011;51452;47.698;19.050;2022-10-16T10:04:47;8.32;;;5.50;;
64936;SDS011;51452;47.698;19.050;2022-10-16T10:07:20;8.07;;;4.80;;
64936;SDS011;51452;47.698;19.050;2022-10-16T10:09:50;9.32;;;5.53;;
64936;SDS011;51452;47.698;19.050;2022-10-16T10:12:28;8.50;;;5.72;;
64936;SDS011;51452;47.698;19.050;2022-10-16T10:14:57;8.40;;;4.75;;
64936;SDS011;51452;47.698;19.050;2022-10-16T10:17:29;9.00;;;5.07;;
64936;SDS011;51452;47.698;19.050;2022-10-16T10:19:55;7.93;;;5.28;;
64936;SDS011;51452;47.698;19.050;2022-10-16T10:27:40;8.50;;;5.13;;
64936;SDS011;51452;47.698;19.050;2022-10-16T10:30:33;7.70;;;4.40;;
64936;SDS011;51452;47.698;19.050;2022-10-16T10:46:35;9.75;;;4.85;;
64936;SDS011;51452;47.698;19.050;2022-10-16T10:51:46;7.93;;;4.68;;
64936;SDS011;51452;47.698;19.050;2022-10-16T10:54:26;9.75;;;4.70;;
64936;SDS011;51452;47.698;19.050;2022-10-16T10:57:09;7.28;;;4.60;;
64936;SDS011;51452;47.698;19.050;2022-10-16T11:03:04;7.03;;;4.25;;
64936;SDS011;51452;47.698;19.050;2022-10-16T11:05:29;7.00;;;4.50;;
64936;SDS011;51452;47.698;19.050;2022-10-16T11:08:02;5.75;;;4.15;;
64936;SDS011;51452;47.698;19.050;2022-10-16T11:10:40;8.00;;;4.20;;
64936;SDS011;51452;47.698;19.050;2022-10-16T11:13:15;8.75;;;4.13;;
64936;SDS011;51452;47.698;19.050;2022-10-16T11:15:50;8.32;;;4.20;;
64936;SDS011;51452;47.698;19.050;2022-10-16T11:18:21;9.95;;;3.63;;
64936;SDS011;51452;47.698;19.050;2022-10-16T11:20:53;10.68;;;4.30;;
64936;SDS011;51452;47.698;19.050;2022-10-16T11:25:49;9.00;;;4.00;;
64936;SDS011;51452;47.698;19.050;2022-10-16T11:28:20;7.07;;;4.20;;
64936;SDS011;51452;47.698;19.050;2022-10-16T11:31:05;9.70;;;4.40;;
64936;SDS011;51452;47.698;19.050;2022-10-16T11:33:42;6.70;;;3.78;;
64936;SDS011;51452;47.698;19.050;2022-10-16T11:41:50;6.65;;;4.28;;
64936;SDS011;51452;47.698;19.050;2022-10-16T11:49:37;8.80;;;4.40;;
64936;SDS011;51452;47.698;19.050;2022-10-16T11:54:46;7.18;;;3.83;;
64936;SDS011;51452;47.698;19.050;2022-10-16T11:57:52;8.90;;;4.00;;
64936;SDS011;51452;47.698;19.050;2022-10-16T12:00:34;7.35;;;4.28;;
64936;SDS011;51452;47.698;19.050;2022-10-16T12:06:00;6.43;;;4.20;;
64936;SDS011;51452;47.698;19.050;2022-10-16T12:08:30;6.10;;;3.60;;
64936;SDS011;51452;47.698;19.050;2022-10-16T12:11:07;6.75;;;3.83;;
64936;SDS011;51452;47.698;19.050;2022-10-16T12:16:37;5.88;;;3.92;;
64936;SDS011;51452;47.698;19.050;2022-10-16T12:19:10;6.65;;;3.83;;
64936;SDS011;51452;47.698;19.050;2022-10-16T12:21:40;7.68;;;4.05;;
64936;SDS011;51452;47.698;19.050;2022-10-16T12:24:06;7.53;;;4.30;;
64936;SDS011;51452;47.698;19.050;2022-10-16T12:26:44;7.10;;;4.10;;
64936;SDS011;51452;47.698;19.050;2022-10-16T12:34:56;7.18;;;3.90;;
64936;SDS011;51452;47.698;19.050;2022-10-16T12:37:23;10.30;;;3.83;;
64936;SDS011;51452;47.698;19.050;2022-10-16T12:39:55;6.50;;;3.75;;
64936;SDS011;51452;47.698;19.050;2022-10-16T12:44:53;6.50;;;3.78;;
64936;SDS011;51452;47.698;19.050;2022-10-16T12:47:23;9.55;;;4.00;;
64936;SDS011;51452;47.698;19.050;2022-10-16T12:49:55;14.32;;;4.68;;
64936;SDS011;51452;47.698;19.050;2022-10-16T12:52:25;8.07;;;3.75;;
64936;SDS011;51452;47.698;19.050;2022-10-16T12:55:00;5.53;;;3.58;;
64936;SDS011;51452;47.698;19.050;2022-10-16T12:57:45;5.15;;;3.42;;
64936;SDS011;51452;47.698;19.050;2022-10-16T13:00:41;6.72;;;3.72;;
64936;SDS011;51452;47.698;19.050;2022-10-16T13:11:26;7.47;;;3.35;;
64936;SDS011;51452;47.698;19.050;2022-10-16T13:17:14;6.25;;;3.45;;
64936;SDS011;51452;47.698;19.050;2022-10-16T13:28:22;6.35;;;3.53;;
64936;SDS011;51452;47.698;19.050;2022-10-16T13:30:53;6.38;;;3.20;;
64936;SDS011;51452;47.698;19.050;2022-10-16T13:33:24;8.25;;;3.67;;
64936;SDS011;51452;47.698;19.050;2022-10-16T13:35:59;5.70;;;3.58;;
64936;SDS011;51452;47.698;19.050;2022-10-16T13:38:26;5.97;;;3.50;;
64936;SDS011;51452;47.698;19.050;2022-10-16T13:41:02;6.43;;;3.17;;
64936;SDS011;51452;47.698;19.050;2022-10-16T13:46:16;6.45;;;3.20;;
64936;SDS011;51452;47.698;19.050;2022-10-16T13:51:24;7.95;;;3.30;;
64936;SDS011;51452;47.698;19.050;2022-10-16T13:53:50;8.02;;;3.20;;
64936;SDS011;51452;47.698;19.050;2022-10-16T13:56:17;6.82;;;3.20;;
64936;SDS011;51452;47.698;19.050;2022-10-16T13:58:45;6.13;;;3.33;;
64936;SDS011;51452;47.698;19.050;2022-10-16T14:01:23;8.02;;;3.47;;
64936;SDS011;51452;47.698;19.050;2022-10-16T14:03:50;6.40;;;3.03;;
64936;SDS011;51452;47.698;19.050;2022-10-16T14:06:17;4.90;;;3.10;;
64936;SDS011;51452;47.698;19.050;2022-10-16T14:08:53;6.28;;;3.10;;
64936;SDS011;51452;47.698;19.050;2022-10-16T14:11:31;7.18;;;3.33;;
64936;SDS011;51452;47.698;19.050;2022-10-16T14:13:57;4.07;;;2.70;;
64936;SDS011;51452;47.698;19.050;2022-10-16T14:16:23;7.80;;;2.78;;
64936;SDS011;51452;47.698;19.050;2022-10-16T14:19:01;5.60;;;2.88;;
64936;SDS011;51452;47.698;19.050;2022-10-16T14:21:31;9.40;;;3.30;;
64936;SDS011;51452;47.698;19.050;2022-10-16T14:23:57;7.85;;;3.28;;
64936;SDS011;51452;47.698;19.050;2022-10-16T14:26:25;6.10;;;3.65;;
64936;SDS011;51452;47.698;19.050;2022-10-16T14:29:10;5.22;;;2.90;;
64936;SDS011;51452;47.698;19.050;2022-10-16T14:31:41;4.05;;;2.75;;
64936;SDS011;51452;47.698;19.050;2022-10-16T14:34:26;5.85;;;3.10;;
64936;SDS011;51452;47.698;19.050;2022-10-16T14:39:19;5.20;;;3.00;;
64936;SDS011;51452;47.698;19.050;2022-10-16T14:41:47;8.40;;;3.15;;
64936;SDS011;51452;47.698;19.050;2022-10-16T14:44:17;7.72;;;3.00;;
64936;SDS011;51452;47.698;19.050;2022-10-16T14:46:44;5.35;;;3.30;;
64936;SDS011;51452;47.698;19.050;2022-10-16T14:51:36;5.65;;;3.10;;
64936;SDS011;51452;47.698;19.050;2022-10-16T14:54:02;7.03;;;3.30;;
64936;SDS011;51452;47.698;19.050;2022-10-16T14:56:29;8.35;;;3.47;;
64936;SDS011;51452;47.698;19.050;2022-10-16T14:59:44;10.05;;;3.55;;
64936;SDS011;51452;47.698;19.050;2022-10-16T15:05:12;7.20;;;3.33;;
64936;SDS011;51452;47.698;19.050;2022-10-16T15:07:41;5.28;;;3.53;;
64936;SDS011;51452;47.698;19.050;2022-10-16T15:10:06;8.80;;;3.20;;
64936;SDS011;51452;47.698;19.050;2022-10-16T15:12:32;6.07;;;3.78;;
64936;SDS011;51452;47.698;19.050;2022-10-16T15:14:57;5.65;;;3.30;;
64936;SDS011;51452;47.698;19.050;2022-10-16T15:17:23;6.35;;;3.50;;
64936;SDS011;51452;47.698;19.050;2022-10-16T15:19:48;5.55;;;3.03;;
64936;SDS011;51452;47.698;19.050;2022-10-16T15:22:13;8.50;;;3.70;;
64936;SDS011;51452;47.698;19.050;2022-10-16T15:24:39;10.45;;;3.65;;
64936;SDS011;51452;47.698;19.050;2022-10-16T15:27:04;5.72;;;3.30;;
64936;SDS011;51452;47.698;19.050;2022-10-16T15:29:30;7.47;;;3.60;;
64936;SDS011;51452;47.698;19.050;2022-10-16T15:31:55;6.32;;;3.08;;
64936;SDS011;51452;47.698;19.050;2022-10-16T15:34:21;8.75;;;3.78;;
64936;SDS011;51452;47.698;19.050;2022-10-16T15:36:46;6.97;;;3.47;;
64936;SDS011;51452;47.698;19.050;2022-10-16T15:39:12;6.32;;;3.55;;
64936;SDS011;51452;47.698;19.050;2022-10-16T15:41:39;4.50;;;3.50;;
64936;SDS011;51452;47.698;19.050;2022-10-16T15:44:04;13.18;;;3.95;;
64936;SDS011;51452;47.698;19.050;2022-10-16T15:46:30;8.98;;;4.20;;
64936;SDS011;51452;47.698;19.050;2022-10-16T15:48:56;7.70;;;3.75;;
64936;SDS011;51452;47.698;19.050;2022-10-16T15:51:23;5.57;;;3.47;;
64936;SDS011;51452;47.698;19.050;2022-10-16T15:53:49;10.40;;;3.72;;
64936;SDS011;51452;47.698;19.050;2022-10-16T15:56:16;16.10;;;6.57;;
64936;SDS011;51452;47.698;19.050;2022-10-16T15:58:42;13.55;;;5.00;;
64936;SDS011;51452;47.698;19.050;2022-10-16T16:01:08;10.95;;;4.43;;
64936;SDS011;51452;47.698;19.050;2022-10-16T16:03:35;7.07;;;4.13;;
64936;SDS011;51452;47.698;19.050;2022-10-16T16:06:04;7.28;;;3.83;;
64936;SDS011;51452;47.698;19.050;2022-10-16T16:08:32;7.75;;;3.60;;
64936;SDS011;51452;47.698;19.050;2022-10-16T16:10:59;8.43;;;3.90;;
64936;SDS011;51452;47.698;19.050;2022-10-16T16:13:25;11.93;;;4.10;;
64936;SDS011;51452;47.698;19.050;2022-10-16T16:15:50;7.95;;;4.20;;
64936;SDS011;51452;47.698;19.050;2022-10-16T16:18:16;8.68;;;3.80;;
64936;SDS011;51452;47.698;19.050;2022-10-16T16:20:41;10.25;;;3.85;;
64936;SDS011;51452;47.698;19.050;2022-10-16T16:23:06;6.93;;;3.47;;
64936;SDS011;51452;47.698;19.050;2022-10-16T16:25:32;6.68;;;3.70;;
64936;SDS011;51452;47.698;19.050;2022-10-16T16:27:57;7.57;;;3.58;;
64936;SDS011;51452;47.698;19.050;2022-10-16T16:30:22;10.43;;;4.00;;
64936;SDS011;51452;47.698;19.050;2022-10-16T16:32:48;12.43;;;4.43;;
64936;SDS011;51452;47.698;19.050;2022-10-16T16:35:13;8.35;;;4.47;;
64936;SDS011;51452;47.698;19.050;2022-10-16T16:37:39;6.10;;;3.88;;
64936;SDS011;51452;47.698;19.050;2022-10-16T16:40:04;8.52;;;3.83;;
64936;SDS011;51452;47.698;19.050;2022-10-16T16:42:30;9.48;;;4.53;;
64936;SDS011;51452;47.698;19.050;2022-10-16T16:44:55;6.15;;;3.78;;
64936;SDS011;51452;47.698;19.050;2022-10-16T16:47:21;8.75;;;4.88;;
64936;SDS011;51452;47.698;19.050;2022-10-16T16:49:46;4.78;;;3.65;;
64936;SDS011;51452;47.698;19.050;2022-10-16T16:52:12;6.35;;;3.80;;
64936;SDS011;51452;47.698;19.050;2022-10-16T16:54:38;8.25;;;3.85;;